createdAt,value
2019-06-04T00:00:17.000Z,21.31
2019-06-04T00:01:17.000Z,21.31
2019-06-04T00:02:17.000Z,21.31
2019-06-04T00:03:17.000Z,21.30
2019-06-04T00:04:17.000Z,21.30
2019-06-04T00:05:17.000Z,21.30
2019-06-04T00:06:17.000Z,21.29
2019-06-04T00:07:17.000Z,21.30
2019-06-04T00:08:17.000Z,21.30
2019-06-04T00:09:17.000Z,21.30
2019-06-04T00:10:17.000Z,21.30
2019-06-04T00:11:17.000Z,21.29
2019-06-04T00:12:17.000Z,21.29
2019-06-04T00:13:17.000Z,21.30
2019-06-04T00:14:17.000Z,21.29
2019-06-04T00:15:17.000Z,21.29
2019-06-04T00:16:17.000Z,21.29
2019-06-04T00:17:17.000Z,21.29
2019-06-04T00:18:17.000Z,21.29
2019-06-04T00:19:17.000Z,21.29
2019-06-04T00:20:17.000Z,21.29
2019-06-04T00:21:17.000Z,21.29
2019-06-04T00:22:17.000Z,21.29
2019-06-04T00:23:17.000Z,21.28
2019-06-04T00:24:17.000Z,21.28
2019-06-04T00:25:17.000Z,21.28
2019-06-04T00:26:17.000Z,21.28
2019-06-04T00:27:17.000Z,21.28
2019-06-04T00:28:17.000Z,21.28
2019-06-04T00:29:17.000Z,21.28
2019-06-04T00:30:17.000Z,21.28
2019-06-04T00:31:17.000Z,21.27
2019-06-04T00:32:18.000Z,21.27
2019-06-04T00:33:17.000Z,21.27
2019-06-04T00:34:17.000Z,21.27
2019-06-04T00:35:17.000Z,21.27
2019-06-04T00:36:17.000Z,21.26
2019-06-04T00:37:17.000Z,21.27
2019-06-04T00:38:17.000Z,21.27
2019-06-04T00:39:17.000Z,21.27
2019-06-04T00:40:17.000Z,21.27
2019-06-04T00:41:17.000Z,21.26
2019-06-04T00:42:17.000Z,21.26
2019-06-04T00:43:17.000Z,21.26
2019-06-04T00:44:17.000Z,21.27
2019-06-04T00:45:17.000Z,21.26
2019-06-04T00:46:17.000Z,21.26
2019-06-04T00:47:17.000Z,21.26
2019-06-04T00:48:17.000Z,21.26
2019-06-04T00:49:17.000Z,21.26
2019-06-04T00:50:17.000Z,21.25
2019-06-04T00:51:17.000Z,21.26
2019-06-04T00:52:17.000Z,21.26
2019-06-04T00:53:17.000Z,21.26
2019-06-04T00:54:17.000Z,21.25
2019-06-04T00:55:17.000Z,21.25
2019-06-04T00:56:17.000Z,21.25
2019-06-04T00:57:17.000Z,21.25
2019-06-04T00:58:17.000Z,21.25
2019-06-04T00:59:17.000Z,21.24
2019-06-04T01:00:17.000Z,21.25
2019-06-04T01:01:17.000Z,21.25
2019-06-04T01:02:17.000Z,21.25
2019-06-04T01:03:17.000Z,21.25
2019-06-04T01:04:17.000Z,21.24
2019-06-04T01:05:17.000Z,21.25
2019-06-04T01:06:17.000Z,21.24
2019-06-04T01:07:17.000Z,21.24
2019-06-04T01:08:17.000Z,21.24
2019-06-04T01:09:17.000Z,21.24
2019-06-04T01:10:17.000Z,21.24
2019-06-04T01:11:17.000Z,21.24
2019-06-04T01:12:17.000Z,21.24
2019-06-04T01:13:17.000Z,21.23
2019-06-04T01:14:17.000Z,21.24
2019-06-04T01:15:17.000Z,21.23
2019-06-04T01:16:17.000Z,21.23
2019-06-04T01:17:17.000Z,21.24
2019-06-04T01:18:17.000Z,21.23
2019-06-04T01:19:17.000Z,21.23
2019-06-04T01:20:17.000Z,21.23
2019-06-04T01:21:17.000Z,21.22
2019-06-04T01:22:17.000Z,21.23
2019-06-04T01:23:17.000Z,21.23
2019-06-04T01:24:17.000Z,21.22
2019-06-04T01:25:17.000Z,21.22
2019-06-04T01:26:17.000Z,21.22
2019-06-04T01:27:17.000Z,21.22
2019-06-04T01:28:17.000Z,21.22
2019-06-04T01:29:17.000Z,21.22
2019-06-04T01:30:17.000Z,21.23
2019-06-04T01:31:17.000Z,21.22
2019-06-04T01:32:17.000Z,21.21
2019-06-04T01:33:17.000Z,21.22
2019-06-04T01:34:17.000Z,21.22
2019-06-04T01:35:17.000Z,21.22
2019-06-04T01:36:18.000Z,21.22
2019-06-04T01:37:17.000Z,21.22
2019-06-04T01:38:17.000Z,21.22
2019-06-04T01:39:17.000Z,21.22
2019-06-04T01:40:17.000Z,21.21
2019-06-04T01:41:17.000Z,21.22
2019-06-04T01:42:17.000Z,21.21
2019-06-04T01:43:17.000Z,21.21
2019-06-04T01:44:17.000Z,21.21
2019-06-04T01:45:17.000Z,21.22
2019-06-04T01:46:17.000Z,21.21
2019-06-04T01:47:17.000Z,21.21
2019-06-04T01:48:17.000Z,21.21
2019-06-04T01:49:17.000Z,21.21
2019-06-04T01:50:17.000Z,21.21
2019-06-04T01:51:17.000Z,21.21
2019-06-04T01:52:17.000Z,21.21
2019-06-04T01:53:17.000Z,21.21
2019-06-04T01:54:17.000Z,21.21
2019-06-04T01:55:17.000Z,21.20
2019-06-04T01:56:17.000Z,21.20
2019-06-04T01:57:17.000Z,21.19
2019-06-04T01:58:17.000Z,21.20
2019-06-04T01:59:17.000Z,21.20
2019-06-04T02:00:17.000Z,21.20
2019-06-04T02:01:17.000Z,21.19
2019-06-04T02:02:17.000Z,21.20
2019-06-04T02:03:17.000Z,21.19
2019-06-04T02:04:17.000Z,21.20
2019-06-04T02:05:17.000Z,21.20
2019-06-04T02:06:17.000Z,21.19
2019-06-04T02:07:17.000Z,21.20
2019-06-04T02:08:17.000Z,21.19
2019-06-04T02:09:17.000Z,21.19
2019-06-04T02:10:17.000Z,21.19
2019-06-04T02:11:17.000Z,21.19
2019-06-04T02:12:17.000Z,21.18
2019-06-04T02:13:17.000Z,21.19
2019-06-04T02:14:17.000Z,21.19
2019-06-04T02:15:17.000Z,21.18
2019-06-04T02:16:17.000Z,21.19
2019-06-04T02:17:17.000Z,21.19
2019-06-04T02:18:17.000Z,21.18
2019-06-04T02:19:18.000Z,21.18
2019-06-04T02:20:17.000Z,21.18
2019-06-04T02:21:17.000Z,21.19
2019-06-04T02:22:17.000Z,21.18
2019-06-04T02:23:17.000Z,21.18
2019-06-04T02:24:17.000Z,21.19
2019-06-04T02:25:17.000Z,21.18
2019-06-04T02:26:17.000Z,21.18
2019-06-04T02:27:17.000Z,21.18
2019-06-04T02:28:17.000Z,21.18
2019-06-04T02:29:17.000Z,21.18
2019-06-04T02:30:17.000Z,21.17
2019-06-04T02:31:17.000Z,21.18
2019-06-04T02:32:17.000Z,21.17
2019-06-04T02:33:17.000Z,21.18
2019-06-04T02:34:17.000Z,21.17
2019-06-04T02:35:17.000Z,21.17
2019-06-04T02:36:17.000Z,21.17
2019-06-04T02:37:17.000Z,21.17
2019-06-04T02:38:17.000Z,21.17
2019-06-04T02:39:17.000Z,21.16
2019-06-04T02:40:17.000Z,21.17
2019-06-04T02:41:17.000Z,21.17
2019-06-04T02:42:17.000Z,21.17
2019-06-04T02:43:17.000Z,21.17
2019-06-04T02:44:17.000Z,21.17
2019-06-04T02:45:17.000Z,21.16
2019-06-04T02:46:17.000Z,21.17
2019-06-04T02:47:17.000Z,21.16
2019-06-04T02:48:17.000Z,21.16
2019-06-04T02:49:17.000Z,21.16
2019-06-04T02:50:17.000Z,21.15
2019-06-04T02:51:17.000Z,21.16
2019-06-04T02:52:17.000Z,21.16
2019-06-04T02:53:17.000Z,21.16
2019-06-04T02:54:17.000Z,21.15
2019-06-04T02:55:18.000Z,21.16
2019-06-04T02:56:17.000Z,21.16
2019-06-04T02:57:18.000Z,21.16
2019-06-04T02:58:17.000Z,21.15
2019-06-04T02:59:18.000Z,21.15
2019-06-04T03:00:18.000Z,21.15
2019-06-04T03:01:18.000Z,21.16
2019-06-04T03:02:17.000Z,21.15
2019-06-04T03:03:17.000Z,21.15
2019-06-04T03:04:17.000Z,21.16
2019-06-04T03:05:17.000Z,21.15
2019-06-04T03:06:17.000Z,21.15
2019-06-04T03:07:17.000Z,21.15
2019-06-04T03:08:17.000Z,21.15
2019-06-04T03:09:17.000Z,21.15
2019-06-04T03:10:17.000Z,21.15
2019-06-04T03:11:18.000Z,21.15
2019-06-04T03:12:18.000Z,21.15
2019-06-04T03:13:17.000Z,21.14
2019-06-04T03:14:18.000Z,21.15
2019-06-04T03:15:17.000Z,21.14
2019-06-04T03:16:17.000Z,21.14
2019-06-04T03:17:18.000Z,21.14
2019-06-04T03:18:18.000Z,21.15
2019-06-04T03:19:18.000Z,21.15
2019-06-04T03:20:17.000Z,21.14
2019-06-04T03:21:17.000Z,21.15
2019-06-04T03:22:17.000Z,21.14
2019-06-04T03:23:17.000Z,21.14
2019-06-04T03:24:18.000Z,21.14
2019-06-04T03:25:17.000Z,21.14
2019-06-04T03:26:17.000Z,21.14
2019-06-04T03:27:17.000Z,21.14
2019-06-04T03:28:17.000Z,21.13
2019-06-04T03:29:17.000Z,21.14
2019-06-04T03:30:17.000Z,21.13
2019-06-04T03:31:17.000Z,21.14
2019-06-04T03:32:17.000Z,21.13
2019-06-04T03:33:17.000Z,21.13
2019-06-04T03:34:17.000Z,21.13
2019-06-04T03:35:17.000Z,21.13
2019-06-04T03:36:17.000Z,21.14
2019-06-04T03:37:17.000Z,21.14
2019-06-04T03:38:17.000Z,21.13
2019-06-04T03:39:17.000Z,21.13
2019-06-04T03:40:17.000Z,21.13
2019-06-04T03:41:17.000Z,21.13
2019-06-04T03:42:17.000Z,21.13
2019-06-04T03:43:17.000Z,21.13
2019-06-04T03:44:17.000Z,21.12
2019-06-04T03:45:17.000Z,21.13
2019-06-04T03:46:17.000Z,21.13
2019-06-04T03:47:17.000Z,21.13
2019-06-04T03:48:17.000Z,21.13
2019-06-04T03:49:17.000Z,21.12
2019-06-04T03:50:17.000Z,21.13
2019-06-04T03:51:17.000Z,21.12
2019-06-04T03:52:17.000Z,21.13
2019-06-04T03:53:17.000Z,21.12
2019-06-04T03:54:17.000Z,21.12
2019-06-04T03:55:17.000Z,21.13
2019-06-04T03:56:17.000Z,21.12
2019-06-04T03:57:17.000Z,21.12
2019-06-04T03:58:17.000Z,21.12
2019-06-04T03:59:17.000Z,21.12
2019-06-04T04:00:17.000Z,21.12
2019-06-04T04:01:17.000Z,21.13
2019-06-04T04:02:17.000Z,21.12
2019-06-04T04:03:17.000Z,21.11
2019-06-04T04:04:17.000Z,21.11
2019-06-04T04:05:17.000Z,21.12
2019-06-04T04:06:17.000Z,21.12
2019-06-04T04:07:17.000Z,21.11
2019-06-04T04:08:17.000Z,21.11
2019-06-04T04:09:17.000Z,21.11
2019-06-04T04:10:17.000Z,21.11
2019-06-04T04:11:17.000Z,21.11
2019-06-04T04:12:17.000Z,21.11
2019-06-04T04:13:17.000Z,21.11
2019-06-04T04:14:17.000Z,21.11
2019-06-04T04:15:17.000Z,21.11
2019-06-04T04:16:17.000Z,21.11
2019-06-04T04:17:17.000Z,21.11
2019-06-04T04:18:17.000Z,21.11
2019-06-04T04:19:17.000Z,21.11
2019-06-04T04:20:17.000Z,21.11
2019-06-04T04:21:17.000Z,21.10
2019-06-04T04:22:17.000Z,21.11
2019-06-04T04:23:17.000Z,21.10
2019-06-04T04:24:17.000Z,21.11
2019-06-04T04:25:17.000Z,21.10
2019-06-04T04:26:17.000Z,21.11
2019-06-04T04:27:17.000Z,21.10
2019-06-04T04:28:17.000Z,21.10
2019-06-04T04:29:17.000Z,21.10
2019-06-04T04:30:17.000Z,21.10
2019-06-04T04:31:17.000Z,21.10
2019-06-04T04:32:17.000Z,21.10
2019-06-04T04:33:17.000Z,21.09
2019-06-04T04:34:17.000Z,21.10
2019-06-04T04:35:17.000Z,21.10
2019-06-04T04:36:17.000Z,21.10
2019-06-04T04:37:17.000Z,21.09
2019-06-04T04:38:17.000Z,21.10
2019-06-04T04:39:17.000Z,21.09
2019-06-04T04:40:17.000Z,21.10
2019-06-04T04:41:17.000Z,21.09
2019-06-04T04:42:17.000Z,21.10
2019-06-04T04:43:17.000Z,21.09
2019-06-04T04:44:17.000Z,21.09
2019-06-04T04:45:17.000Z,21.10
2019-06-04T04:46:17.000Z,21.10
2019-06-04T04:47:17.000Z,21.10
2019-06-04T04:48:17.000Z,21.09
2019-06-04T04:49:17.000Z,21.10
2019-06-04T04:50:17.000Z,21.09
2019-06-04T04:51:17.000Z,21.09
2019-06-04T04:52:17.000Z,21.10
2019-06-04T04:53:17.000Z,21.09
2019-06-04T04:54:17.000Z,21.08
2019-06-04T04:55:17.000Z,21.09
2019-06-04T04:56:17.000Z,21.09
2019-06-04T04:57:17.000Z,21.09
2019-06-04T04:58:17.000Z,21.09
2019-06-04T04:59:17.000Z,21.08
2019-06-04T05:00:17.000Z,21.08
2019-06-04T05:01:17.000Z,21.09
2019-06-04T05:02:17.000Z,21.09
2019-06-04T05:03:17.000Z,21.09
2019-06-04T05:04:17.000Z,21.09
2019-06-04T05:05:17.000Z,21.09
2019-06-04T05:06:17.000Z,21.09
2019-06-04T05:07:18.000Z,21.08
2019-06-04T05:08:17.000Z,21.08
2019-06-04T05:09:18.000Z,21.08
2019-06-04T05:10:18.000Z,21.09
2019-06-04T05:11:18.000Z,21.09
2019-06-04T05:12:18.000Z,21.08
2019-06-04T05:13:18.000Z,21.08
2019-06-04T05:14:18.000Z,21.08
2019-06-04T05:15:18.000Z,21.09
2019-06-04T05:16:17.000Z,21.09
2019-06-04T05:17:18.000Z,21.08
2019-06-04T05:18:17.000Z,21.09
2019-06-04T05:19:18.000Z,21.08
2019-06-04T05:20:17.000Z,21.08
2019-06-04T05:21:18.000Z,21.08
2019-06-04T05:22:17.000Z,21.09
2019-06-04T05:23:17.000Z,21.08
2019-06-04T05:24:17.000Z,21.09
2019-06-04T05:25:18.000Z,21.09
2019-06-04T05:26:17.000Z,21.08
2019-06-04T05:27:17.000Z,21.08
2019-06-04T05:28:17.000Z,21.08
2019-06-04T05:29:17.000Z,21.09
2019-06-04T05:30:17.000Z,21.09
2019-06-04T05:31:18.000Z,21.08
2019-06-04T05:32:17.000Z,21.09
2019-06-04T05:33:18.000Z,21.08
2019-06-04T05:34:17.000Z,21.09
2019-06-04T05:35:17.000Z,21.09
2019-06-04T05:36:18.000Z,21.08
2019-06-04T05:37:17.000Z,21.09
2019-06-04T05:38:17.000Z,21.08
2019-06-04T05:39:17.000Z,21.08
2019-06-04T05:40:17.000Z,21.09
2019-06-04T05:41:17.000Z,21.09
2019-06-04T05:42:18.000Z,21.09
2019-06-04T05:43:17.000Z,21.09
2019-06-04T05:44:17.000Z,21.09
2019-06-04T05:45:17.000Z,21.08
2019-06-04T05:46:17.000Z,21.08
2019-06-04T05:47:17.000Z,21.08
2019-06-04T05:48:17.000Z,21.09
2019-06-04T05:49:17.000Z,21.08
2019-06-04T05:50:18.000Z,21.08
2019-06-04T05:51:18.000Z,21.09
2019-06-04T05:52:17.000Z,21.09
2019-06-04T05:53:17.000Z,21.08
2019-06-04T05:54:18.000Z,21.08
2019-06-04T05:55:17.000Z,21.08
2019-06-04T05:56:17.000Z,21.07
2019-06-04T05:57:17.000Z,21.08
2019-06-04T05:58:17.000Z,21.08
2019-06-04T05:59:17.000Z,21.10
2019-06-04T06:00:17.000Z,21.10
2019-06-04T06:01:17.000Z,21.10
2019-06-04T06:02:17.000Z,21.10
2019-06-04T06:03:17.000Z,21.10
2019-06-04T06:04:17.000Z,21.11
2019-06-04T06:05:17.000Z,21.12
2019-06-04T06:06:17.000Z,21.12
2019-06-04T06:07:17.000Z,21.12
2019-06-04T06:08:17.000Z,21.13
2019-06-04T06:09:17.000Z,21.12
2019-06-04T06:10:17.000Z,21.12
2019-06-04T06:11:17.000Z,21.12
2019-06-04T06:12:17.000Z,21.13
2019-06-04T06:13:17.000Z,21.14
2019-06-04T06:14:17.000Z,21.15
2019-06-04T06:15:17.000Z,21.15
2019-06-04T06:16:17.000Z,21.15
2019-06-04T06:17:17.000Z,21.16
2019-06-04T06:18:17.000Z,21.15
2019-06-04T06:19:17.000Z,21.16
2019-06-04T06:20:17.000Z,21.16
2019-06-04T06:21:17.000Z,21.16
2019-06-04T06:22:17.000Z,21.17
2019-06-04T06:23:18.000Z,21.17
2019-06-04T06:24:17.000Z,21.17
2019-06-04T06:25:17.000Z,21.17
2019-06-04T06:26:17.000Z,21.17
2019-06-04T06:27:17.000Z,21.17
2019-06-04T06:28:17.000Z,21.17
2019-06-04T06:29:17.000Z,21.16
2019-06-04T06:30:17.000Z,21.17
2019-06-04T06:31:17.000Z,21.16
2019-06-04T06:32:18.000Z,21.17
2019-06-04T06:33:18.000Z,21.17
2019-06-04T06:34:18.000Z,21.17
2019-06-04T06:35:17.000Z,21.18
2019-06-04T06:36:17.000Z,21.18
2019-06-04T06:37:17.000Z,21.18
2019-06-04T06:38:17.000Z,21.19
2019-06-04T06:39:17.000Z,21.20
2019-06-04T06:40:17.000Z,21.20
2019-06-04T06:41:17.000Z,21.21
2019-06-04T06:42:17.000Z,21.21
2019-06-04T06:43:17.000Z,21.21
2019-06-04T06:44:17.000Z,21.22
2019-06-04T06:45:17.000Z,21.23
2019-06-04T06:46:17.000Z,21.24
2019-06-04T06:47:17.000Z,21.24
2019-06-04T06:48:18.000Z,21.25
2019-06-04T06:49:17.000Z,21.25
2019-06-04T06:50:17.000Z,21.26
2019-06-04T06:51:17.000Z,21.26
2019-06-04T06:52:18.000Z,21.26
2019-06-04T06:53:17.000Z,21.27
2019-06-04T06:54:17.000Z,21.27
2019-06-04T06:55:17.000Z,21.27
2019-06-04T06:56:17.000Z,21.28
2019-06-04T06:57:17.000Z,21.28
2019-06-04T06:58:17.000Z,21.29
2019-06-04T06:59:17.000Z,21.29
2019-06-04T07:00:17.000Z,21.30
2019-06-04T07:01:17.000Z,21.30
2019-06-04T07:02:18.000Z,21.31
2019-06-04T07:03:17.000Z,21.31
2019-06-04T07:04:17.000Z,21.32
2019-06-04T07:05:17.000Z,21.31
2019-06-04T07:06:17.000Z,21.33
2019-06-04T07:07:17.000Z,21.33
2019-06-04T07:08:17.000Z,21.33
2019-06-04T07:09:17.000Z,21.34
2019-06-04T07:10:17.000Z,21.33
2019-06-04T07:11:17.000Z,21.35
2019-06-04T07:12:17.000Z,21.35
2019-06-04T07:13:17.000Z,21.34
2019-06-04T07:14:17.000Z,21.36
2019-06-04T07:15:17.000Z,21.36
2019-06-04T07:16:17.000Z,21.36
2019-06-04T07:17:17.000Z,21.36
2019-06-04T07:18:17.000Z,21.37
2019-06-04T07:19:17.000Z,21.37
2019-06-04T07:20:17.000Z,21.38
2019-06-04T07:21:17.000Z,21.38
2019-06-04T07:22:18.000Z,21.38
2019-06-04T07:23:17.000Z,21.39
2019-06-04T07:24:17.000Z,21.39
2019-06-04T07:25:17.000Z,21.39
2019-06-04T07:26:17.000Z,21.40
2019-06-04T07:27:17.000Z,21.40
2019-06-04T07:28:17.000Z,21.40
2019-06-04T07:29:17.000Z,21.40
2019-06-04T07:30:17.000Z,21.41
2019-06-04T07:31:17.000Z,21.44
2019-06-04T07:32:17.000Z,21.43
2019-06-04T07:33:17.000Z,21.44
2019-06-04T07:34:17.000Z,21.47
2019-06-04T07:35:17.000Z,21.48
2019-06-04T07:36:17.000Z,21.50
2019-06-04T07:37:17.000Z,21.51
2019-06-04T07:38:17.000Z,21.51
2019-06-04T07:39:17.000Z,21.52
2019-06-04T07:40:17.000Z,21.55
2019-06-04T07:41:17.000Z,21.55
2019-06-04T07:42:17.000Z,21.55
2019-06-04T07:43:17.000Z,21.54
2019-06-04T07:44:17.000Z,21.54
2019-06-04T07:45:17.000Z,21.55
2019-06-04T07:46:17.000Z,21.53
2019-06-04T07:47:17.000Z,21.53
2019-06-04T07:48:17.000Z,21.52
2019-06-04T07:49:17.000Z,21.52
2019-06-04T07:50:17.000Z,21.52
2019-06-04T07:51:17.000Z,21.51
2019-06-04T07:52:17.000Z,21.52
2019-06-04T07:53:17.000Z,21.51
2019-06-04T07:54:17.000Z,21.51
2019-06-04T07:55:17.000Z,21.50
2019-06-04T07:56:17.000Z,21.50
2019-06-04T07:57:17.000Z,21.49
2019-06-04T07:58:17.000Z,21.49
2019-06-04T07:59:17.000Z,21.48
2019-06-04T08:00:17.000Z,21.48
2019-06-04T08:01:17.000Z,21.47
2019-06-04T08:02:17.000Z,21.47
2019-06-04T08:03:17.000Z,21.47
2019-06-04T08:04:17.000Z,21.46
2019-06-04T08:05:17.000Z,21.46
2019-06-04T08:06:17.000Z,21.46
2019-06-04T08:07:17.000Z,21.45
2019-06-04T08:08:17.000Z,21.44
2019-06-04T08:09:17.000Z,21.44
2019-06-04T08:10:17.000Z,21.44
2019-06-04T08:11:17.000Z,21.43
2019-06-04T08:12:17.000Z,21.43
2019-06-04T08:13:17.000Z,21.43
2019-06-04T08:14:17.000Z,21.41
2019-06-04T08:15:17.000Z,21.42
2019-06-04T08:16:17.000Z,21.42
2019-06-04T08:17:17.000Z,21.41
2019-06-04T08:18:17.000Z,21.41
2019-06-04T08:19:17.000Z,21.40
2019-06-04T08:20:17.000Z,21.40
2019-06-04T08:21:17.000Z,21.40
2019-06-04T08:22:17.000Z,21.40
2019-06-04T08:23:17.000Z,21.38
2019-06-04T08:24:17.000Z,21.38
2019-06-04T08:25:17.000Z,21.38
2019-06-04T08:26:17.000Z,21.38
2019-06-04T08:27:17.000Z,21.38
2019-06-04T08:28:17.000Z,21.38
2019-06-04T08:29:17.000Z,21.37
2019-06-04T08:30:17.000Z,21.37
2019-06-04T08:31:17.000Z,21.37
2019-06-04T08:32:17.000Z,21.36
2019-06-04T08:33:17.000Z,21.36
2019-06-04T08:34:17.000Z,21.36
2019-06-04T08:35:17.000Z,21.36
2019-06-04T08:36:17.000Z,21.36
2019-06-04T08:37:17.000Z,21.36
2019-06-04T08:38:17.000Z,21.35
2019-06-04T08:39:17.000Z,21.35
2019-06-04T08:40:17.000Z,21.35
2019-06-04T08:41:17.000Z,21.34
2019-06-04T08:42:17.000Z,21.34
2019-06-04T08:43:17.000Z,21.34
2019-06-04T08:44:17.000Z,21.33
2019-06-04T08:45:17.000Z,21.33
2019-06-04T08:46:17.000Z,21.33
2019-06-04T08:47:17.000Z,21.34
2019-06-04T08:48:17.000Z,21.32
2019-06-04T08:49:17.000Z,21.32
2019-06-04T08:50:17.000Z,21.33
2019-06-04T08:51:17.000Z,21.32
2019-06-04T08:52:17.000Z,21.32
2019-06-04T08:53:17.000Z,21.32
2019-06-04T08:54:17.000Z,21.31
2019-06-04T08:55:17.000Z,21.32
2019-06-04T08:56:17.000Z,21.31
2019-06-04T08:57:17.000Z,21.31
2019-06-04T08:58:17.000Z,21.31
2019-06-04T08:59:17.000Z,21.30
2019-06-04T09:00:17.000Z,21.30
2019-06-04T09:01:17.000Z,21.30
2019-06-04T09:02:17.000Z,21.30
2019-06-04T09:03:17.000Z,21.30
2019-06-04T09:04:17.000Z,21.30
2019-06-04T09:05:17.000Z,21.30
2019-06-04T09:06:17.000Z,21.30
2019-06-04T09:07:17.000Z,21.30
2019-06-04T09:08:17.000Z,21.29
2019-06-04T09:09:17.000Z,21.29
2019-06-04T09:10:17.000Z,21.30
2019-06-04T09:11:17.000Z,21.30
2019-06-04T09:12:17.000Z,21.29
2019-06-04T09:13:17.000Z,21.29
2019-06-04T09:14:17.000Z,21.29
2019-06-04T09:15:17.000Z,21.29
2019-06-04T09:16:17.000Z,21.28
2019-06-04T09:17:17.000Z,21.28
2019-06-04T09:18:17.000Z,21.28
2019-06-04T09:19:17.000Z,21.28
2019-06-04T09:20:17.000Z,21.28
2019-06-04T09:21:17.000Z,21.27
2019-06-04T09:22:17.000Z,21.28
2019-06-04T09:23:17.000Z,21.28
2019-06-04T09:24:17.000Z,21.28
2019-06-04T09:25:17.000Z,21.27
2019-06-04T09:26:17.000Z,21.27
2019-06-04T09:27:18.000Z,21.27
2019-06-04T09:28:18.000Z,21.26
2019-06-04T09:29:18.000Z,21.27
2019-06-04T09:30:18.000Z,21.27
2019-06-04T09:31:18.000Z,21.26
2019-06-04T09:32:17.000Z,21.27
2019-06-04T09:33:17.000Z,21.26
2019-06-04T09:34:17.000Z,21.26
2019-06-04T09:35:17.000Z,21.26
2019-06-04T09:36:17.000Z,21.26
2019-06-04T09:37:17.000Z,21.26
2019-06-04T09:38:17.000Z,21.26
2019-06-04T09:39:17.000Z,21.25
2019-06-04T09:40:17.000Z,21.25
2019-06-04T09:41:17.000Z,21.26
2019-06-04T09:42:17.000Z,21.25
2019-06-04T09:43:17.000Z,21.25
2019-06-04T09:44:17.000Z,21.25
2019-06-04T09:45:17.000Z,21.24
2019-06-04T09:46:17.000Z,21.25
2019-06-04T09:47:17.000Z,21.24
2019-06-04T09:48:17.000Z,21.25
2019-06-04T09:49:17.000Z,21.25
2019-06-04T09:50:18.000Z,21.24
2019-06-04T09:51:17.000Z,21.24
2019-06-04T09:52:17.000Z,21.24
2019-06-04T09:53:17.000Z,21.24
2019-06-04T09:54:17.000Z,21.24
2019-06-04T09:55:17.000Z,21.24
2019-06-04T09:56:17.000Z,21.24
2019-06-04T09:57:17.000Z,21.24
2019-06-04T09:58:17.000Z,21.24
2019-06-04T09:59:17.000Z,21.23
2019-06-04T10:00:17.000Z,21.24
2019-06-04T10:01:17.000Z,21.23
2019-06-04T10:02:17.000Z,21.23
2019-06-04T10:03:17.000Z,21.24
2019-06-04T10:04:17.000Z,21.24
2019-06-04T10:05:17.000Z,21.22
2019-06-04T10:06:17.000Z,21.22
2019-06-04T10:07:17.000Z,21.22
2019-06-04T10:08:17.000Z,21.23
2019-06-04T10:09:17.000Z,21.23
2019-06-04T10:10:17.000Z,21.22
2019-06-04T10:11:17.000Z,21.22
2019-06-04T10:12:17.000Z,21.22
2019-06-04T10:13:17.000Z,21.22
2019-06-04T10:14:18.000Z,21.22
2019-06-04T10:15:17.000Z,21.22
2019-06-04T10:16:17.000Z,21.22
2019-06-04T10:17:17.000Z,21.22
2019-06-04T10:18:17.000Z,21.22
2019-06-04T10:19:17.000Z,21.21
2019-06-04T10:20:17.000Z,21.21
2019-06-04T10:21:17.000Z,21.22
2019-06-04T10:22:17.000Z,21.21
2019-06-04T10:23:17.000Z,21.21
2019-06-04T10:24:18.000Z,21.21
2019-06-04T10:25:17.000Z,21.21
2019-06-04T10:26:17.000Z,21.21
2019-06-04T10:27:17.000Z,21.21
2019-06-04T10:28:17.000Z,21.21
2019-06-04T10:29:17.000Z,21.21
2019-06-04T10:30:17.000Z,21.21
2019-06-04T10:31:17.000Z,21.20
2019-06-04T10:32:17.000Z,21.20
2019-06-04T10:33:17.000Z,21.21
2019-06-04T10:34:17.000Z,21.20
2019-06-04T10:35:17.000Z,21.20
2019-06-04T10:36:17.000Z,21.21
2019-06-04T10:37:17.000Z,21.20
2019-06-04T10:38:17.000Z,21.21
2019-06-04T10:39:17.000Z,21.20
2019-06-04T10:40:17.000Z,21.20
2019-06-04T10:41:17.000Z,21.20
2019-06-04T10:42:17.000Z,21.20
2019-06-04T10:43:17.000Z,21.19
2019-06-04T10:44:17.000Z,21.20
2019-06-04T10:45:17.000Z,21.20
2019-06-04T10:46:17.000Z,21.19
2019-06-04T10:47:17.000Z,21.19
2019-06-04T10:48:17.000Z,21.19
2019-06-04T10:49:17.000Z,21.20
2019-06-04T10:50:17.000Z,21.17
2019-06-04T10:51:17.000Z,21.19
2019-06-04T10:52:17.000Z,21.19
2019-06-04T10:53:17.000Z,21.18
2019-06-04T10:54:17.000Z,21.18
2019-06-04T10:55:17.000Z,21.19
2019-06-04T10:56:17.000Z,21.19
2019-06-04T10:57:17.000Z,21.18
2019-06-04T10:58:17.000Z,21.19
2019-06-04T10:59:17.000Z,21.18
2019-06-04T11:00:17.000Z,21.18
2019-06-04T11:01:17.000Z,21.18
2019-06-04T11:02:17.000Z,21.18
2019-06-04T11:03:17.000Z,21.18
2019-06-04T11:04:17.000Z,21.18
2019-06-04T11:05:17.000Z,21.18
2019-06-04T11:06:17.000Z,21.17
2019-06-04T11:07:17.000Z,21.17
2019-06-04T11:08:17.000Z,21.18
2019-06-04T11:09:17.000Z,21.18
2019-06-04T11:10:17.000Z,21.18
2019-06-04T11:11:17.000Z,21.17
2019-06-04T11:12:17.000Z,21.17
2019-06-04T11:13:17.000Z,21.17
2019-06-04T11:14:17.000Z,21.17
2019-06-04T11:15:17.000Z,21.17
2019-06-04T11:16:17.000Z,21.17
2019-06-04T11:17:17.000Z,21.17
2019-06-04T11:18:17.000Z,21.17
2019-06-04T11:19:17.000Z,21.18
2019-06-04T11:20:17.000Z,21.17
2019-06-04T11:21:17.000Z,21.17
2019-06-04T11:22:17.000Z,21.16
2019-06-04T11:23:17.000Z,21.17
2019-06-04T11:24:17.000Z,21.16
2019-06-04T11:25:17.000Z,21.17
2019-06-04T11:26:17.000Z,21.17
2019-06-04T11:27:17.000Z,21.17
2019-06-04T11:28:17.000Z,21.16
2019-06-04T11:29:17.000Z,21.16
2019-06-04T11:30:17.000Z,21.16
2019-06-04T11:31:17.000Z,21.16
2019-06-04T11:32:17.000Z,21.16
2019-06-04T11:33:17.000Z,21.16
2019-06-04T11:34:17.000Z,21.16
2019-06-04T11:35:17.000Z,21.17
2019-06-04T11:36:17.000Z,21.16
2019-06-04T11:37:17.000Z,21.16
2019-06-04T11:38:17.000Z,21.16
2019-06-04T11:39:17.000Z,21.16
2019-06-04T11:40:17.000Z,21.16
2019-06-04T11:41:17.000Z,21.16
2019-06-04T11:42:17.000Z,21.15
2019-06-04T11:43:17.000Z,21.15
2019-06-04T11:44:17.000Z,21.16
2019-06-04T11:45:17.000Z,21.16
2019-06-04T11:46:17.000Z,21.15
2019-06-04T11:47:17.000Z,21.15
2019-06-04T11:48:16.000Z,21.15
2019-06-04T11:49:17.000Z,21.15
2019-06-04T11:50:17.000Z,21.15
2019-06-04T11:51:17.000Z,21.16
2019-06-04T11:52:17.000Z,21.15
2019-06-04T11:53:17.000Z,21.16
2019-06-04T11:54:17.000Z,21.15
2019-06-04T11:55:17.000Z,21.14
2019-06-04T11:56:17.000Z,21.15
2019-06-04T11:57:16.000Z,21.15
2019-06-04T11:58:16.000Z,21.15
2019-06-04T11:59:16.000Z,21.15
2019-06-04T12:00:17.000Z,21.15
2019-06-04T12:01:16.000Z,21.15
2019-06-04T12:02:16.000Z,21.15
2019-06-04T12:03:17.000Z,21.15
2019-06-04T12:04:16.000Z,21.15
2019-06-04T12:05:17.000Z,21.15
2019-06-04T12:06:17.000Z,21.15
2019-06-04T12:07:17.000Z,21.15
2019-06-04T12:08:17.000Z,21.14
2019-06-04T12:09:16.000Z,21.14
2019-06-04T12:10:16.000Z,21.14
2019-06-04T12:11:16.000Z,21.15
2019-06-04T12:12:16.000Z,21.14
2019-06-04T12:13:16.000Z,21.14
2019-06-04T12:14:16.000Z,21.14
2019-06-04T12:15:16.000Z,21.14
2019-06-04T12:16:16.000Z,21.14
2019-06-04T12:17:16.000Z,21.14
2019-06-04T12:18:16.000Z,21.14
2019-06-04T12:19:17.000Z,21.14
2019-06-04T12:20:16.000Z,21.14
2019-06-04T12:21:17.000Z,21.14
2019-06-04T12:22:17.000Z,21.14
2019-06-04T12:23:16.000Z,21.14
2019-06-04T12:24:17.000Z,21.14
2019-06-04T12:25:17.000Z,21.14
2019-06-04T12:26:17.000Z,21.14
2019-06-04T12:27:17.000Z,21.14
2019-06-04T12:28:17.000Z,21.14
2019-06-04T12:29:17.000Z,21.14
2019-06-04T12:30:17.000Z,21.13
2019-06-04T12:31:17.000Z,21.14
2019-06-04T12:32:17.000Z,21.14
2019-06-04T12:33:17.000Z,21.14
2019-06-04T12:34:17.000Z,21.13
2019-06-04T12:35:17.000Z,21.14
2019-06-04T12:36:18.000Z,21.13
2019-06-04T12:37:17.000Z,21.13
2019-06-04T12:38:17.000Z,21.13
2019-06-04T12:39:17.000Z,21.12
2019-06-04T12:40:17.000Z,21.13
2019-06-04T12:41:17.000Z,21.13
2019-06-04T12:42:17.000Z,21.13
2019-06-04T12:43:17.000Z,21.13
2019-06-04T12:44:17.000Z,21.13
2019-06-04T12:45:17.000Z,21.13
2019-06-04T12:46:17.000Z,21.13
2019-06-04T12:47:17.000Z,21.13
2019-06-04T12:48:17.000Z,21.13
2019-06-04T12:49:17.000Z,21.12
2019-06-04T12:50:17.000Z,21.13
2019-06-04T12:51:17.000Z,21.13
2019-06-04T12:52:17.000Z,21.14